Time;durP1;ratioP1;P1;durP2;ratioP2;P2;SDS_P1;SDS_P2;PMS_P1;PMS_P2;Temp;Humidity;BMP_temperature;BMP_pressure;BME280_temperature;BME280_humidity;BME280_pressure;Samples;Min_cycle;Max_cycle;Signal;HPM_P1;HPM_P2
2022/11/13 06:51:30;;;;;;;16.00;10.73;;;4.70;99.90;;;;;;5055506;28;20133;-54
2022/11/13 06:54:16;;;;;;;18.63;11.90;;;4.60;99.90;;;;;;5044680;28;20064;-55
2022/11/13 06:57:01;;;;;;;16.95;11.10;;;4.60;99.90;;;;;;5043344;28;20545;-53
2022/11/13 06:59:47;;;;;;;17.02;10.65;;;4.50;99.90;;;;;;5046507;28;20272;-54
2022/11/13 07:02:32;;;;;;;16.10;10.45;;;4.50;99.90;;;;;;5042870;28;20322;-53
2022/11/13 07:05:17;;;;;;;17.92;10.38;;;4.50;99.90;;;;;;5044249;28;20099;-52
2022/11/13 07:08:03;;;;;;;15.10;9.90;;;4.50;99.90;;;;;;5040980;28;20059;-55
2022/11/13 07:10:54;;;;;;;17.17;10.05;;;4.50;99.90;;;;;;5049700;28;20299;-55
2022/11/13 07:13:40;;;;;;;14.48;9.27;;;4.50;99.90;;;;;;5045096;28;20064;-55
2022/11/13 07:16:25;;;;;;;16.13;11.07;;;4.50;99.90;;;;;;5046808;28;20080;-55
2022/11/13 07:19:29;;;;;;;14.27;9.30;;;4.50;99.90;;;;;;5042506;28;20078;-54
2022/11/13 07:22:14;;;;;;;15.90;10.02;;;4.50;99.90;;;;;;5048474;28;20059;-54
2022/11/13 07:24:59;;;;;;;14.95;10.35;;;4.50;99.90;;;;;;5042972;28;20422;-54
2022/11/13 07:27:45;;;;;;;17.15;11.05;;;4.60;99.90;;;;;;5044074;28;20097;-55
2022/11/13 07:30:30;;;;;;;29.23;12.98;;;4.60;99.90;;;;;;5045762;28;20438;-54
2022/11/13 07:33:16;;;;;;;18.05;11.15;;;4.70;99.90;;;;;;5042796;28;20047;-54
2022/11/13 07:36:02;;;;;;;19.45;11.55;;;4.60;99.90;;;;;;5041378;28;20075;-55
2022/11/13 07:38:47;;;;;;;16.80;10.80;;;4.60;99.90;;;;;;5045329;28;20079;-57
2022/11/13 07:41:33;;;;;;;15.93;10.32;;;4.60;99.90;;;;;;5042869;28;20059;-55
2022/11/13 07:44:18;;;;;;;16.38;10.93;;;4.70;99.90;;;;;;5042849;28;20497;-55
2022/11/13 07:47:24;;;;;;;23.50;11.55;;;4.70;99.90;;;;;;5042729;28;20125;-56
2022/11/13 07:50:09;;;;;;;17.10;11.25;;;4.70;99.90;;;;;;5044620;28;20059;-54
2022/11/13 07:53:00;;;;;;;16.38;10.55;;;4.70;99.90;;;;;;5045581;28;20564;-56
2022/11/13 07:55:46;;;;;;;17.38;11.27;;;4.70;99.90;;;;;;5043275;28;20207;-55
2022/11/13 07:58:31;;;;;;;16.02;11.30;;;4.80;99.90;;;;;;5040836;28;20534;-52
2022/11/13 08:01:17;;;;;;;17.25;10.70;;;4.80;99.90;;;;;;5039892;28;20149;-56
2022/11/13 08:04:02;;;;;;;14.07;9.82;;;4.80;99.90;;;;;;5035092;28;20063;-57
2022/11/13 08:06:48;;;;;;;20.40;12.57;;;4.80;99.90;;;;;;5030449;28;20162;-54
2022/11/13 08:09:33;;;;;;;20.27;12.10;;;4.80;99.90;;;;;;5032655;28;20071;-56
2022/11/13 08:12:19;;;;;;;24.23;12.77;;;4.90;99.90;;;;;;5026672;28;20068;-56
2022/11/13 08:15:05;;;;;;;19.92;12.23;;;4.90;99.90;;;;;;5030228;28;20712;-57
2022/11/13 08:17:59;;;;;;;16.73;10.95;;;4.90;99.90;;;;;;5033967;28;20052;-57
2022/11/13 08:20:44;;;;;;;22.50;11.18;;;4.80;99.90;;;;;;5031577;28;20060;-56
2022/11/13 08:23:31;;;;;;;14.68;9.77;;;4.80;99.90;;;;;;5025879;28;20094;-56
2022/11/13 08:26:17;;;;;;;20.33;11.52;;;4.80;99.90;;;;;;5024011;28;20273;-56
2022/11/13 08:29:03;;;;;;;17.50;11.80;;;4.80;99.90;;;;;;5029116;28;20374;-53
2022/11/13 08:31:48;;;;;;;25.02;12.00;;;4.80;99.90;;;;;;5028885;28;20060;-53
2022/11/13 08:34:35;;;;;;;16.73;10.18;;;4.80;99.90;;;;;;5031303;28;20622;-55
2022/11/13 08:37:20;;;;;;;14.00;10.05;;;4.80;99.90;;;;;;5031175;28;20101;-52
2022/11/13 08:40:06;;;;;;;15.73;9.75;;;4.90;99.90;;;;;;5027247;28;21191;-53
2022/11/13 08:42:52;;;;;;;12.77;9.35;;;4.90;99.90;;;;;;5027295;28;20202;-56
2022/11/13 08:45:37;;;;;;;13.95;9.02;;;4.90;99.90;;;;;;5029415;28;20351;-54
2022/11/13 08:48:23;;;;;;;15.63;10.60;;;5.00;99.90;;;;;;5023272;28;20529;-53
2022/11/13 08:51:09;;;;;;;17.73;10.13;;;5.00;99.90;;;;;;5031543;28;20318;-54
2022/11/13 08:53:54;;;;;;;15.63;9.95;;;5.00;99.90;;;;;;5029983;28;20434;-53
2022/11/13 08:56:40;;;;;;;17.90;10.43;;;5.00;99.90;;;;;;5024952;28;20072;-52
2022/11/13 08:59:26;;;;;;;13.13;9.40;;;5.10;99.90;;;;;;5027509;28;20134;-53
2022/11/13 09:02:15;;;;;;;15.95;11.40;;;5.10;99.90;;;;;;5031333;28;20102;-53
2022/11/13 09:05:00;;;;;;;15.00;10.80;;;5.20;99.90;;;;;;5027424;28;20059;-54
2022/11/13 09:07:46;;;;;;;15.55;10.10;;;5.20;99.90;;;;;;5028133;28;20164;-54
2022/11/13 09:10:31;;;;;;;16.27;11.35;;;5.30;99.90;;;;;;5034155;28;20105;-54
2022/11/13 09:13:16;;;;;;;25.33;12.20;;;5.30;99.90;;;;;;5027257;28;20158;-52
2022/11/13 09:16:02;;;;;;;25.48;10.77;;;5.40;99.90;;;;;;5027426;28;20072;-54
2022/11/13 09:18:49;;;;;;;32.97;11.80;;;5.40;99.90;;;;;;5030804;28;20059;-53
2022/11/13 09:21:35;;;;;;;37.93;11.43;;;5.40;99.90;;;;;;5027534;28;20143;-52
2022/11/13 09:24:20;;;;;;;16.52;10.40;;;5.40;99.90;;;;;;5028678;28;20618;-54
2022/11/13 09:27:06;;;;;;;13.80;10.15;;;5.40;99.90;;;;;;5032336;28;20051;-53
2022/11/13 09:29:51;;;;;;;16.42;10.73;;;5.40;99.90;;;;;;5029321;28;20743;-51
2022/11/13 09:32:40;;;;;;;28.77;12.13;;;5.40;99.90;;;;;;5027027;28;20060;-51
2022/11/13 09:35:33;;;;;;;14.45;10.00;;;5.40;99.90;;;;;;5031953;28;20118;-50
2022/11/13 09:38:18;;;;;;;15.82;11.02;;;5.50;99.90;;;;;;5031901;28;20153;-54
2022/11/13 09:41:10;;;;;;;18.00;12.60;;;5.50;99.90;;;;;;5027239;28;20056;-52
2022/11/13 09:44:01;;;;;;;16.20;10.07;;;5.50;99.90;;;;;;5026934;28;20145;-53
2022/11/13 09:46:52;;;;;;;12.95;9.32;;;5.50;99.90;;;;;;5030963;28;20142;-53
2022/11/13 09:49:44;;;;;;;13.82;9.23;;;5.60;99.90;;;;;;5027622;28;20095;-54
2022/11/13 09:52:36;;;;;;;91.18;15.13;;;5.60;99.90;;;;;;5028608;28;20137;-52
2022/11/13 09:55:28;;;;;;;16.15;11.25;;;5.60;99.90;;;;;;5027189;28;20163;-54
2022/11/13 09:58:30;;;;;;;25.40;11.38;;;5.60;99.90;;;;;;5019674;28;20056;-52
2022/11/13 10:01:31;;;;;;;13.98;9.50;;;5.60;99.90;;;;;;5021251;28;20054;-51
2022/11/13 10:04:28;;;;;;;14.10;9.25;;;5.70;99.90;;;;;;5025717;28;20107;-49
2022/11/13 10:07:31;;;;;;;12.77;9.52;;;5.70;99.90;;;;;;5025981;28;20080;-51
2022/11/13 10:10:16;;;;;;;14.82;10.45;;;5.70;99.90;;;;;;5025141;28;20056;-50
2022/11/13 10:13:04;;;;;;;14.73;9.35;;;5.70;99.90;;;;;;5029114;28;20052;-52
2022/11/13 10:15:51;;;;;;;;;;;5.70;99.90;;;;;;5028738;28;20055;-50
2022/11/13 10:18:38;;;;;;;20.83;12.27;;;5.70;99.90;;;;;;5024817;28;19931;-51
2022/11/13 10:21:41;;;;;;;15.43;11.45;;;5.70;99.90;;;;;;5023788;28;20479;-52
2022/11/13 10:24:41;;;;;;;15.45;10.30;;;5.70;99.90;;;;;;5027983;28;20137;-50
2022/11/13 10:27:27;;;;;;;15.73;10.45;;;5.70;99.90;;;;;;5028905;28;20061;-50
2022/11/13 10:30:15;;;;;;;18.60;11.35;;;5.70;99.90;;;;;;5029490;28;20156;-50
2022/11/13 10:33:05;;;;;;;14.65;10.70;;;5.70;99.90;;;;;;5028903;28;20084;-50
2022/11/13 10:36:13;;;;;;;14.23;9.77;;;5.70;99.90;;;;;;5025185;28;20060;-53
2022/11/13 10:39:04;;;;;;;12.57;9.13;;;5.70;99.90;;;;;;5027704;28;20191;-49
2022/11/13 10:41:52;;;;;;;14.23;10.07;;;5.70;99.90;;;;;;5027153;28;20056;-50
2022/11/13 10:44:39;;;;;;;25.85;12.10;;;5.80;99.90;;;;;;5025542;28;20190;-49
2022/11/13 10:47:27;;;;;;;28.98;11.60;;;5.80;99.90;;;;;;5028731;28;20064;-53
2022/11/13 10:50:33;;;;;;;12.68;9.52;;;5.80;99.90;;;;;;5022816;28;20125;-52
2022/11/13 10:53:19;;;;;;;15.10;10.27;;;5.80;99.90;;;;;;5024453;28;20090;-50
2022/11/13 10:56:34;;;;;;;17.92;11.05;;;5.80;99.90;;;;;;5028322;28;20052;-51
2022/11/13 10:59:19;;;;;;;12.85;10.43;;;5.80;99.90;;;;;;5030143;28;20138;-50
2022/11/13 11:02:10;;;;;;;16.05;10.25;;;5.80;99.90;;;;;;5033600;28;20146;-49
2022/11/13 11:05:16;;;;;;;17.92;11.00;;;5.80;99.90;;;;;;5028178;28;20209;-51
2022/11/13 11:08:07;;;;;;;14.15;10.32;;;5.80;99.90;;;;;;5029293;28;20110;-53
2022/11/13 11:14:24;;;;;;;15.55;11.15;;;5.80;99.90;;;;;;5030517;28;20463;-50
2022/11/13 11:17:11;;;;;;;18.00;10.82;;;5.80;99.90;;;;;;5028767;28;20660;-50
2022/11/13 11:20:28;;;;;;;14.98;11.25;;;5.80;99.90;;;;;;5030575;28;20064;-50
2022/11/13 11:23:37;;;;;;;17.02;10.70;;;5.80;99.90;;;;;;5031808;28;20079;-51
2022/11/13 11:26:25;;;;;;;15.80;11.35;;;5.80;99.90;;;;;;5025135;28;20138;-49
2022/11/13 11:29:30;;;;;;;22.30;11.73;;;5.80;99.90;;;;;;5025827;28;20109;-50
2022/11/13 11:32:42;;;;;;;15.30;10.05;;;5.80;99.90;;;;;;5021630;28;20059;-51
2022/11/13 11:35:37;;;;;;;10.77;8.63;;;5.80;99.90;;;;;;5025523;28;20056;-51
2022/11/13 11:38:54;;;;;;;9.43;8.02;;;5.80;99.90;;;;;;5029636;28;20648;-50
2022/11/13 11:41:54;;;;;;;11.75;8.98;;;5.80;99.90;;;;;;5026614;28;20748;-52
2022/11/13 11:44:59;;;;;;;13.55;10.43;;;5.80;99.90;;;;;;5026155;28;20683;-51
2022/11/13 11:47:44;;;;;;;12.70;9.15;;;5.80;99.90;;;;;;5027825;28;20571;-51
2022/11/13 11:51:00;;;;;;;14.30;9.75;;;5.80;99.90;;;;;;5028653;28;20882;-51
2022/11/13 11:54:28;;;;;;;15.27;10.82;;;5.80;99.90;;;;;;5017984;28;20068;-52
2022/11/13 11:57:28;;;;;;;12.57;9.30;;;5.80;99.90;;;;;;5032698;28;20068;-53
2022/11/13 12:00:16;;;;;;;14.63;10.25;;;5.80;99.90;;;;;;5029669;28;20195;-49
2022/11/13 12:03:24;;;;;;;14.68;10.23;;;5.90;99.90;;;;;;5032625;28;20134;-53
2022/11/13 12:06:31;;;;;;;14.90;10.80;;;5.90;99.90;;;;;;5030014;28;20195;-50
2022/11/13 12:09:23;;;;;;;10.55;8.20;;;5.90;99.90;;;;;;5030260;28;20064;-50
2022/11/13 12:13:02;;;;;;;14.75;10.52;;;5.90;99.90;;;;;;5025856;28;20090;-49
2022/11/13 12:15:57;;;;;;;13.20;9.90;;;6.00;99.90;;;;;;4945864;28;20062;-51
2022/11/13 12:19:03;;;;;;;12.82;9.77;;;6.00;99.90;;;;;;4951635;28;20061;-50
2022/11/13 12:21:51;;;;;;;14.70;10.02;;;6.00;99.90;;;;;;5031851;28;20055;-51
2022/11/13 12:24:58;;;;;;;15.90;11.55;;;6.00;99.90;;;;;;5032502;28;20098;-51
2022/11/13 12:27:52;;;;;;;15.80;11.32;;;6.00;99.90;;;;;;5032494;28;20064;-51
2022/11/13 12:31:03;;;;;;;14.73;10.32;;;6.00;99.90;;;;;;5033675;28;20065;-53
2022/11/13 12:34:02;;;;;;;19.77;11.82;;;6.00;99.90;;;;;;5027974;28;20689;-48
2022/11/13 12:36:48;;;;;;;15.65;10.50;;;6.00;99.90;;;;;;5024570;28;20052;-50
2022/11/13 12:39:43;;;;;;;16.45;11.10;;;6.00;99.90;;;;;;5029363;28;20051;-50
2022/11/13 12:42:52;;;;;;;17.15;11.77;;;6.00;99.90;;;;;;5033306;28;20153;-51
2022/11/13 12:45:37;;;;;;;;;;;6.00;99.90;;;;;;5033765;28;20544;-50
2022/11/13 12:48:33;;;;;;;13.05;10.02;;;6.00;99.90;;;;;;5029035;28;20067;-52
2022/11/13 12:51:18;;;;;;;15.98;11.93;;;5.90;99.90;;;;;;5034660;28;20064;-53
2022/11/13 12:54:03;;;;;;;14.85;10.60;;;5.90;99.90;;;;;;5023808;28;20060;-51
2022/11/13 12:56:49;;;;;;;14.32;11.35;;;5.90;99.90;;;;;;5024451;28;20055;-52
2022/11/13 12:59:45;;;;;;;18.38;10.90;;;5.90;99.90;;;;;;5033030;28;20615;-50
2022/11/13 13:03:01;;;;;;;15.15;10.43;;;5.90;99.90;;;;;;5032227;28;20060;-52
2022/11/13 13:05:47;;;;;;;13.48;10.65;;;5.90;99.90;;;;;;5030582;28;20056;-50
2022/11/13 13:09:04;;;;;;;14.73;10.38;;;5.90;99.90;;;;;;5030499;28;20056;-49
2022/11/13 13:12:14;;;;;;;18.05;13.25;;;5.90;99.90;;;;;;5027944;28;20873;-52
2022/11/13 13:15:30;;;;;;;14.52;11.10;;;5.90;99.90;;;;;;5032451;28;20578;-58
2022/11/13 13:18:16;;;;;;;16.30;11.68;;;5.90;99.90;;;;;;5029925;28;20056;-51
2022/11/13 13:21:19;;;;;;;13.80;10.13;;;5.70;99.90;;;;;;5027513;28;20072;-53
2022/11/13 13:24:35;;;;;;;16.98;11.32;;;5.70;99.90;;;;;;5025162;28;20079;-50
2022/11/13 13:27:26;;;;;;;18.05;12.18;;;5.70;99.90;;;;;;5022640;28;20064;-50
2022/11/13 13:30:21;;;;;;;19.90;13.40;;;5.70;99.90;;;;;;5026329;28;20098;-47
2022/11/13 13:33:24;;;;;;;16.48;11.43;;;5.60;99.90;;;;;;5024171;28;20445;-48
2022/11/13 13:36:35;;;;;;;17.52;11.57;;;5.60;99.90;;;;;;5024370;28;20513;-52
2022/11/13 13:39:21;;;;;;;24.02;13.55;;;5.60;99.90;;;;;;5024043;28;20052;-49
2022/11/13 13:42:17;;;;;;;22.33;13.10;;;5.60;99.90;;;;;;5027551;28;20102;-51
2022/11/13 13:45:27;;;;;;;19.17;13.00;;;5.50;99.90;;;;;;5030311;28;20538;-50
2022/11/13 13:48:17;;;;;;;21.45;14.50;;;5.50;99.90;;;;;;5030369;28;20574;-51
2022/11/13 13:51:09;;;;;;;20.30;12.75;;;5.40;99.90;;;;;;5031305;28;20427;-50
2022/11/13 13:53:58;;;;;;;19.55;13.73;;;5.40;99.90;;;;;;5029281;28;20056;-51
2022/11/13 13:56:44;;;;;;;22.67;13.88;;;5.40;99.90;;;;;;5027789;28;20434;-49
2022/11/13 13:59:34;;;;;;;20.42;13.75;;;5.40;99.90;;;;;;5032078;28;20056;-49
2022/11/13 14:02:22;;;;;;;23.95;14.63;;;5.40;99.90;;;;;;5027593;28;20606;-51
2022/11/13 14:05:37;;;;;;;19.10;13.35;;;5.40;99.90;;;;;;5029914;28;20777;-50
2022/11/13 14:08:25;;;;;;;22.63;15.43;;;5.40;99.90;;;;;;5026000;28;20071;-50
2022/11/13 14:11:19;;;;;;;22.35;14.52;;;5.40;99.90;;;;;;5026405;28;20194;-50
2022/11/13 14:14:14;;;;;;;23.42;14.98;;;5.40;99.90;;;;;;5024016;28;20527;-49
2022/11/13 14:17:02;;;;;;;18.73;14.05;;;5.50;99.90;;;;;;5026538;28;20059;-53
2022/11/13 14:19:51;;;;;;;27.42;17.17;;;5.50;99.90;;;;;;5025144;28;20051;-49
2022/11/13 14:22:39;;;;;;;21.65;13.98;;;5.50;99.90;;;;;;5027151;28;20059;-51
2022/11/13 14:25:27;;;;;;;18.58;13.73;;;5.50;99.90;;;;;;5029551;28;20505;-49
2022/11/13 14:28:18;;;;;;;20.77;14.73;;;5.50;99.90;;;;;;5029452;28;20102;-51
2022/11/13 14:31:07;;;;;;;17.65;12.85;;;5.50;99.90;;;;;;5025948;28;20043;-59
2022/11/13 14:33:53;;;;;;;18.73;12.98;;;5.50;99.90;;;;;;5026586;28;20073;-50
2022/11/13 14:36:39;;;;;;;21.77;13.70;;;5.50;99.90;;;;;;5026506;28;20446;-49
2022/11/13 14:39:31;;;;;;;20.92;12.68;;;5.50;99.90;;;;;;5025827;28;20059;-50
2022/11/13 14:42:20;;;;;;;19.88;13.93;;;5.50;99.90;;;;;;5023503;28;20471;-54
2022/11/13 14:45:15;;;;;;;19.90;13.35;;;5.50;99.90;;;;;;5024466;28;20600;-51
2022/11/13 14:48:19;;;;;;;24.10;13.23;;;5.50;99.90;;;;;;5027481;28;20322;-50
2022/11/13 14:51:20;;;;;;;19.05;13.40;;;5.50;99.90;;;;;;5023120;28;20134;-51
2022/11/13 14:54:25;;;;;;;20.70;12.77;;;5.50;99.90;;;;;;5025592;28;20502;-51
2022/11/13 14:57:14;;;;;;;18.85;13.43;;;5.50;99.90;;;;;;5028461;28;20055;-49
2022/11/13 15:00:44;;;;;;;20.67;14.70;;;5.50;99.90;;;;;;5026963;28;20155;-52
2022/11/13 15:03:29;;;;;;;23.77;12.53;;;5.50;99.90;;;;;;5026288;28;20317;-50
2022/11/13 15:06:18;;;;;;;14.55;11.02;;;5.50;99.90;;;;;;5033337;28;20578;-51
2022/11/13 15:09:12;;;;;;;16.73;10.75;;;5.50;99.90;;;;;;5021389;28;20793;-51
2022/11/13 15:11:57;;;;;;;16.55;12.35;;;5.50;99.90;;;;;;5020655;28;20057;-51
2022/11/13 15:14:43;;;;;;;18.77;13.90;;;5.50;99.90;;;;;;5031002;28;20059;-49
2022/11/13 15:17:29;;;;;;;19.75;13.32;;;5.50;99.90;;;;;;5030674;28;20640;-50
2022/11/13 15:20:24;;;;;;;19.15;12.73;;;5.40;99.90;;;;;;5034272;28;20446;-50
2022/11/13 15:23:12;;;;;;;17.98;12.80;;;5.40;99.90;;;;;;5035187;28;20055;-51
2022/11/13 15:25:57;;;;;;;19.02;12.45;;;5.40;99.90;;;;;;5031206;28;20067;-50
2022/11/13 15:28:43;;;;;;;15.80;11.23;;;5.40;99.90;;;;;;5030184;28;20052;-50
2022/11/13 15:31:35;;;;;;;16.65;11.70;;;5.40;99.90;;;;;;5028946;28;20383;-49
2022/11/13 15:34:21;;;;;;;19.40;13.20;;;5.40;99.90;;;;;;5031335;28;20159;-49
2022/11/13 15:37:15;;;;;;;21.48;13.70;;;5.40;99.90;;;;;;5028437;28;20526;-50
2022/11/13 15:40:01;;;;;;;19.30;13.68;;;5.40;99.90;;;;;;5031117;28;20660;-50
2022/11/13 15:42:46;;;;;;;19.60;13.90;;;5.40;99.90;;;;;;5029782;28;20427;-48
2022/11/13 15:45:31;;;;;;;22.15;15.77;;;5.40;99.90;;;;;;5031210;28;20059;-52
2022/11/13 15:48:17;;;;;;;31.45;17.35;;;5.40;99.90;;;;;;5028747;28;20191;-49
2022/11/13 15:51:03;;;;;;;25.67;17.13;;;5.50;99.90;;;;;;5031001;28;20307;-50
2022/11/13 15:54:00;;;;;;;26.83;17.20;;;5.50;99.90;;;;;;5027971;28;20546;-49
2022/11/13 15:56:46;;;;;;;23.58;16.58;;;5.40;99.90;;;;;;5028842;28;20060;-50
2022/11/13 15:59:31;;;;;;;27.08;16.00;;;5.40;99.90;;;;;;5024735;28;20435;-50
2022/11/13 16:02:17;;;;;;;22.13;14.05;;;5.40;99.90;;;;;;5034009;28;20089;-50
2022/11/13 16:05:03;;;;;;;25.77;16.80;;;5.40;99.90;;;;;;5032061;28;20199;-49
2022/11/13 16:07:48;;;;;;;30.88;18.50;;;5.40;99.90;;;;;;5028374;28;21075;-50
2022/11/13 16:10:34;;;;;;;27.08;16.73;;;5.40;99.90;;;;;;5033579;28;20281;-48
2022/11/13 16:13:19;;;;;;;26.85;16.90;;;5.40;99.90;;;;;;5024583;28;20059;-52
2022/11/13 16:16:07;;;;;;;23.85;16.00;;;5.30;99.90;;;;;;5029607;28;20129;-50
2022/11/13 16:18:52;;;;;;;26.88;16.88;;;5.40;99.90;;;;;;5033854;28;20520;-48
2022/11/13 16:21:44;;;;;;;24.85;17.15;;;5.30;99.90;;;;;;5032326;28;20592;-47
2022/11/13 16:24:29;;;;;;;26.40;16.77;;;5.30;99.90;;;;;;5032236;28;20064;-51
2022/11/13 16:27:25;;;;;;;27.55;16.80;;;5.30;99.90;;;;;;5023773;28;20213;-48
2022/11/13 16:30:18;;;;;;;28.35;16.08;;;5.30;99.90;;;;;;5030778;28;20283;-51
2022/11/13 16:33:08;;;;;;;25.83;15.30;;;5.30;99.90;;;;;;5033947;28;20083;-50
2022/11/13 16:35:53;;;;;;;22.40;15.90;;;5.30;99.90;;;;;;5034310;28;20049;-50
2022/11/13 16:38:39;;;;;;;25.52;14.77;;;5.30;99.90;;;;;;5031689;28;20473;-52
2022/11/13 16:41:25;;;;;;;22.55;15.73;;;5.30;99.90;;;;;;5028719;28;20105;-50
2022/11/13 16:44:10;;;;;;;30.40;16.90;;;5.30;99.90;;;;;;5025688;28;20426;-48
2022/11/13 16:46:56;;;;;;;23.17;15.07;;;5.30;99.90;;;;;;5023980;28;20191;-50
2022/11/13 16:49:41;;;;;;;19.15;12.63;;;5.30;99.90;;;;;;5023959;28;20290;-51
2022/11/13 16:52:27;;;;;;;17.25;11.80;;;5.20;99.90;;;;;;5022190;28;20523;-51
2022/11/13 16:55:12;;;;;;;18.15;12.52;;;5.20;99.90;;;;;;5028294;28;20541;-49
2022/11/13 16:57:58;;;;;;;14.85;10.57;;;5.20;99.90;;;;;;5031287;28;20537;-51
2022/11/13 17:00:44;;;;;;;14.65;10.23;;;5.10;99.90;;;;;;5026774;28;20092;-51
2022/11/13 17:03:29;;;;;;;13.05;9.90;;;5.10;99.90;;;;;;5031812;28;20053;-51
2022/11/13 17:06:27;;;;;;;18.35;11.98;;;5.10;99.90;;;;;;5024074;28;20186;-50
2022/11/13 17:09:13;;;;;;;14.75;10.45;;;5.10;99.90;;;;;;5029144;28;20053;-53
2022/11/13 17:11:58;;;;;;;15.27;10.73;;;5.00;99.90;;;;;;5028779;28;20060;-52
2022/11/13 17:14:45;;;;;;;15.07;11.05;;;5.00;99.90;;;;;;5025311;28;20103;-51
2022/11/13 17:17:30;;;;;;;14.30;9.65;;;5.00;99.90;;;;;;5028049;28;20060;-53
2022/11/13 17:20:18;;;;;;;16.23;10.30;;;5.00;99.90;;;;;;5033922;28;20258;-53
2022/11/13 17:23:03;;;;;;;12.98;9.88;;;4.90;99.90;;;;;;5027851;28;20063;-51
2022/11/13 17:25:49;;;;;;;13.50;10.00;;;4.90;99.90;;;;;;5024761;28;20142;-53
2022/11/13 17:28:34;;;;;;;13.60;9.35;;;4.90;99.90;;;;;;5027657;28;20497;-51
2022/11/13 17:31:20;;;;;;;13.63;9.55;;;4.90;99.90;;;;;;5031990;28;20064;-52
2022/11/13 17:34:06;;;;;;;13.63;9.05;;;4.90;99.90;;;;;;5023222;28;20080;-51
2022/11/13 17:36:53;;;;;;;15.50;10.40;;;4.90;99.90;;;;;;5026623;28;20349;-53
2022/11/13 17:39:38;;;;;;;11.70;9.10;;;4.90;99.90;;;;;;5028250;28;20870;-53
2022/11/13 17:42:24;;;;;;;14.43;9.95;;;4.90;99.90;;;;;;5025995;28;20060;-51
2022/11/13 17:45:09;;;;;;;13.65;9.27;;;5.00;99.90;;;;;;5023723;28;20072;-52
2022/11/13 17:47:55;;;;;;;15.95;10.02;;;5.00;99.90;;;;;;5025479;28;20422;-53
2022/11/13 17:50:40;;;;;;;11.77;8.85;;;5.00;99.90;;;;;;5028666;28;20187;-52
2022/11/13 17:53:26;;;;;;;13.15;9.75;;;5.00;99.90;;;;;;5029551;28;20076;-54
2022/11/13 17:56:12;;;;;;;14.00;10.13;;;5.00;99.90;;;;;;5026699;28;20060;-52
2022/11/13 17:58:58;;;;;;;13.68;9.20;;;5.00;99.90;;;;;;5027214;28;20079;-53
2022/11/13 18:01:43;;;;;;;12.80;9.45;;;5.00;99.90;;;;;;5023937;28;20529;-52
2022/11/13 18:04:30;;;;;;;13.68;9.57;;;5.00;99.90;;;;;;5029145;28;20596;-49
2022/11/13 18:07:15;;;;;;;11.77;8.65;;;5.00;99.90;;;;;;5028863;28;20193;-51
2022/11/13 18:10:00;;;;;;;10.30;8.40;;;5.00;99.90;;;;;;5026765;28;20415;-50
2022/11/13 18:12:46;;;;;;;13.52;9.13;;;5.00;99.90;;;;;;5023549;28;20057;-52
2022/11/13 18:15:36;;;;;;;12.18;9.02;;;5.00;99.90;;;;;;5027149;28;20130;-51
2022/11/13 18:18:21;;;;;;;10.55;8.10;;;5.00;99.90;;;;;;5024226;28;20048;-51
2022/11/13 18:21:09;;;;;;;12.88;9.50;;;5.00;99.90;;;;;;5026383;28;20064;-50
2022/11/13 18:24:15;;;;;;;13.85;9.00;;;5.00;99.90;;;;;;5024861;28;20425;-50
2022/11/13 18:27:00;;;;;;;12.80;9.18;;;5.00;99.90;;;;;;5027452;28;20411;-50
2022/11/13 18:29:46;;;;;;;10.65;8.20;;;5.10;99.90;;;;;;5024032;28;20060;-52
2022/11/13 18:32:31;;;;;;;10.95;7.97;;;5.00;99.90;;;;;;5020396;28;20260;-50
2022/11/13 18:35:17;;;;;;;9.82;7.72;;;5.00;99.90;;;;;;5025176;28;20063;-51
2022/11/13 18:38:02;;;;;;;11.68;9.13;;;5.00;99.90;;;;;;5027902;28;20387;-51
2022/11/13 18:40:48;;;;;;;11.07;8.20;;;4.90;99.90;;;;;;5025821;28;20134;-51
2022/11/13 18:43:34;;;;;;;14.10;7.68;;;4.90;99.90;;;;;;5024846;28;20066;-50
2022/11/13 18:46:20;;;;;;;11.57;8.85;;;4.80;99.90;;;;;;5029960;28;20343;-54
2022/11/13 18:49:07;;;;;;;11.82;7.95;;;4.80;99.90;;;;;;5028464;28;20640;-54
2022/11/13 18:51:53;;;;;;;8.70;7.75;;;4.80;99.90;;;;;;5026763;28;20310;-53
2022/11/13 18:54:38;;;;;;;10.85;7.07;;;4.80;99.90;;;;;;5028285;28;20519;-50
2022/11/13 18:57:24;;;;;;;11.13;7.85;;;4.80;99.90;;;;;;5028517;28;20658;-49
2022/11/13 19:00:09;;;;;;;11.45;8.07;;;4.80;99.90;;;;;;5021358;28;20061;-51
2022/11/13 19:02:56;;;;;;;11.45;8.25;;;4.80;99.90;;;;;;5024832;28;20183;-52
2022/11/13 19:05:44;;;;;;;11.67;8.13;;;4.80;99.90;;;;;;5022081;28;20203;-53
2022/11/13 19:08:30;;;;;;;10.07;8.00;;;4.90;99.90;;;;;;5024007;28;20609;-53
2022/11/13 19:11:17;;;;;;;11.23;9.10;;;4.80;99.90;;;;;;5023655;28;20095;-51
2022/11/13 19:14:03;;;;;;;13.80;9.15;;;4.80;99.90;;;;;;5023712;28;20381;-53
2022/11/13 19:16:48;;;;;;;12.23;9.30;;;4.90;99.90;;;;;;5023805;28;20072;-53
2022/11/13 19:19:33;;;;;;;11.15;8.98;;;4.90;99.90;;;;;;5019147;28;20098;-52
2022/11/13 19:22:19;;;;;;;12.48;9.50;;;4.80;99.90;;;;;;5023452;28;20122;-54
2022/11/13 19:25:06;;;;;;;11.57;8.43;;;4.90;99.90;;;;;;5017886;28;20498;-55
2022/11/13 19:27:53;;;;;;;12.75;8.68;;;4.90;99.90;;;;;;5032562;28;20057;-52
2022/11/13 19:30:43;;;;;;;12.43;8.90;;;4.90;99.90;;;;;;5026806;28;20052;-51
2022/11/13 19:33:29;;;;;;;13.48;8.20;;;4.80;99.90;;;;;;5022978;28;20546;-54
2022/11/13 19:36:16;;;;;;;11.90;7.72;;;4.80;99.90;;;;;;5027578;28;20052;-54
2022/11/13 19:39:03;;;;;;;13.10;8.55;;;4.80;99.90;;;;;;5024051;28;20063;-53
2022/11/13 19:41:48;;;;;;;24.48;10.65;;;4.80;99.90;;;;;;5022850;28;20431;-52
2022/11/13 19:44:34;;;;;;;15.20;8.63;;;4.80;99.90;;;;;;5027220;28;20371;-54
2022/11/13 19:47:19;;;;;;;21.33;11.70;;;4.80;99.90;;;;;;5024833;28;20550;-53
2022/11/13 19:50:05;;;;;;;12.75;9.10;;;4.80;99.90;;;;;;5023750;28;20059;-54
2022/11/13 19:52:50;;;;;;;17.25;10.77;;;4.80;99.90;;;;;;5026961;28;20047;-55
2022/11/13 19:55:35;;;;;;;13.30;9.93;;;4.70;99.90;;;;;;5024500;28;20316;-55
2022/11/13 19:58:21;;;;;;;15.93;10.68;;;4.70;99.90;;;;;;5023992;28;20195;-54
2022/11/13 20:01:08;;;;;;;14.90;10.20;;;4.70;99.90;;;;;;5027673;28;20294;-55
2022/11/13 20:04:01;;;;;;;14.27;10.25;;;4.60;99.90;;;;;;5028294;28;20080;-55
2022/11/13 20:06:46;;;;;;;14.43;9.75;;;4.60;99.90;;;;;;5028406;28;20067;-55
2022/11/13 20:09:32;;;;;;;15.18;9.65;;;4.60;99.90;;;;;;5029213;28;20125;-53
2022/11/13 20:12:17;;;;;;;14.20;10.10;;;4.60;99.90;;;;;;5027133;28;20692;-54
2022/11/13 20:15:03;;;;;;;23.20;13.30;;;4.60;99.90;;;;;;5028232;28;20056;-53
2022/11/13 20:17:49;;;;;;;15.93;11.00;;;4.60;99.90;;;;;;5027841;28;20056;-54
2022/11/13 20:20:34;;;;;;;16.33;11.13;;;4.60;99.90;;;;;;5025236;28;20111;-53
2022/11/13 20:23:20;;;;;;;15.48;10.77;;;4.50;99.90;;;;;;5029424;28;20680;-52
2022/11/13 20:26:10;;;;;;;15.23;10.43;;;4.50;99.90;;;;;;5030551;28;20060;-52
2022/11/13 20:28:55;;;;;;;16.33;12.20;;;4.50;99.90;;;;;;5032318;28;20719;-53
2022/11/13 20:31:41;;;;;;;42.05;12.82;;;4.50;99.90;;;;;;5034858;28;20834;-55
2022/11/13 20:34:26;;;;;;;15.50;12.10;;;4.40;99.90;;;;;;5032467;28;20513;-51
2022/11/13 20:37:12;;;;;;;77.20;13.13;;;4.50;99.90;;;;;;5032577;28;20056;-54
2022/11/13 20:39:57;;;;;;;15.20;10.75;;;4.40;99.90;;;;;;5031291;28;20269;-53
2022/11/13 20:42:43;;;;;;;14.15;10.23;;;4.40;99.90;;;;;;5031955;28;20055;-53
2022/11/13 20:45:28;;;;;;;22.65;9.75;;;4.40;99.90;;;;;;5027804;28;20072;-54
2022/11/13 20:48:13;;;;;;;9.60;7.47;;;4.40;99.90;;;;;;5031962;28;20060;-54
2022/11/13 20:51:07;;;;;;;9.43;6.80;;;4.40;99.90;;;;;;5024808;28;20051;-55
2022/11/13 20:53:53;;;;;;;8.10;6.25;;;4.30;99.90;;;;;;5027409;28;20060;-55
2022/11/13 20:56:39;;;;;;;7.97;6.55;;;4.30;99.90;;;;;;5029003;28;20569;-55
2022/11/13 20:59:24;;;;;;;9.10;6.60;;;4.20;99.90;;;;;;5029738;28;20616;-56
2022/11/13 21:02:12;;;;;;;9.93;7.50;;;4.20;99.90;;;;;;5027974;28;20126;-56
2022/11/13 21:04:57;;;;;;;10.25;7.45;;;4.10;99.90;;;;;;5024305;28;20080;-55
2022/11/13 21:07:43;;;;;;;8.82;6.50;;;4.10;99.90;;;;;;5027285;28;20060;-54
2022/11/13 21:10:28;;;;;;;11.00;8.20;;;4.10;99.90;;;;;;5031868;28;20581;-55
2022/11/13 21:13:15;;;;;;;11.80;7.95;;;4.10;99.90;;;;;;5033774;28;20499;-56
2022/11/13 21:16:08;;;;;;;8.20;6.47;;;4.00;99.90;;;;;;5025518;28;20161;-56
2022/11/13 21:18:55;;;;;;;6.75;5.82;;;4.00;99.90;;;;;;5043624;28;20100;-57
2022/11/13 21:21:41;;;;;;;6.13;4.88;;;3.90;99.90;;;;;;5029318;28;20207;-56
2022/11/13 21:24:26;;;;;;;6.07;4.97;;;3.90;99.90;;;;;;5029703;28;20151;-55
2022/11/13 21:27:12;;;;;;;5.22;4.63;;;3.80;99.90;;;;;;5030294;28;20094;-55
2022/11/13 21:29:57;;;;;;;8.07;5.35;;;3.80;99.90;;;;;;5029282;28;20647;-57
2022/11/13 21:32:43;;;;;;;7.28;4.78;;;3.70;99.90;;;;;;5034887;28;20404;-54